sensor_id;sensor_type;location;lat;lon;timestamp;pressure;altitude;pressure_sealevel;temperature;humidity
23253;BME280;11795;47.054;15.408;2023-04-09T00:00:00;97950;;;4.4;86.2
23253;BME280;11795;47.054;15.408;2023-04-09T00:02:00;97940;;;4.2;86.6
23253;BME280;11795;47.054;15.408;2023-04-09T00:04:00;97940;;;4.5;86.0
23253;BME280;11795;47.054;15.408;2023-04-09T00:06:00;97950;;;4.3;85.9
23253;BME280;11795;47.054;15.408;2023-04-09T00:08:00;97940;;;4.2;86.4
23253;BME280;11795;47.054;15.408;2023-04-09T00:10:00;97940;;;4.4;85.8
23253;BME280;11795;47.054;15.408;2023-04-09T00:12:01;97940;;;4.3;85.9
23253;BME280;11795;47.054;15.408;2023-04-09T00:14:00;97940;;;4.5;85.7
23253;BME280;11795;47.054;15.408;2023-04-09T00:16:00;97940;;;4.3;85.8
23253;BME280;11795;47.054;15.408;2023-04-09T00:18:00;97940;;;4.3;86.2
23253;BME280;11795;47.054;15.408;2023-04-09T00:20:00;97940;;;4.4;85.8
23253;BME280;11795;47.054;15.408;2023-04-09T00:22:00;97940;;;4.3;86.1
23253;BME280;11795;47.054;15.408;2023-04-09T00:24:00;97930;;;4.5;86.0
23253;BME280;11795;47.054;15.408;2023-04-09T00:26:00;97940;;;4.3;86.2
23253;BME280;11795;47.054;15.408;2023-04-09T00:28:00;97930;;;4.2;86.5
23253;BME280;11795;47.054;15.408;2023-04-09T00:30:00;97930;;;4.4;86.0
23253;BME280;11795;47.054;15.408;2023-04-09T00:32:00;97930;;;4.3;86.3
23253;BME280;11795;47.054;15.408;2023-04-09T00:34:00;97930;;;4.5;86.0
23253;BME280;11795;47.054;15.408;2023-04-09T00:36:00;97930;;;4.3;86.1
23253;BME280;11795;47.054;15.408;2023-04-09T00:38:00;97930;;;4.2;86.4
23253;BME280;11795;47.054;15.408;2023-04-09T00:40:00;97920;;;4.3;86.0
23253;BME280;11795;47.054;15.408;2023-04-09T00:42:02;97920;;;4.2;86.3
23253;BME280;11795;47.054;15.408;2023-04-09T00:44:00;97920;;;4.4;85.9
23253;BME280;11795;47.054;15.408;2023-04-09T00:46:00;97920;;;4.2;86.1
23253;BME280;11795;47.054;15.408;2023-04-09T00:48:01;97930;;;4.1;86.7
23253;BME280;11795;47.054;15.408;2023-04-09T00:50:01;97930;;;4.2;86.0
23253;BME280;11795;47.054;15.408;2023-04-09T00:52:00;97930;;;4.1;86.3
23253;BME280;11795;47.054;15.408;2023-04-09T00:54:00;97930;;;4.3;86.2
23253;BME280;11795;47.054;15.408;2023-04-09T00:56:01;97930;;;4.2;86.4
23253;BME280;11795;47.054;15.408;2023-04-09T00:58:00;97930;;;4.1;86.8
23253;BME280;11795;47.054;15.408;2023-04-09T01:00:00;97930;;;4.2;86.1
23253;BME280;11795;47.054;15.408;2023-04-09T01:02:00;97930;;;4.1;86.5
23253;BME280;11795;47.054;15.408;2023-04-09T01:04:01;97920;;;4.3;86.2
23253;BME280;11795;47.054;15.408;2023-04-09T01:06:05;97930;;;4.2;86.3
23253;BME280;11795;47.054;15.408;2023-04-09T01:08:05;97930;;;4.1;86.7
23253;BME280;11795;47.054;15.408;2023-04-09T01:10:10;97920;;;4.3;86.2
23253;BME280;11795;47.054;15.408;2023-04-09T01:12:08;97930;;;4.2;86.6
23253;BME280;11795;47.054;15.408;2023-04-09T01:14:05;97930;;;4.4;86.3
23253;BME280;11795;47.054;15.408;2023-04-09T01:16:02;97930;;;4.2;86.3
23253;BME280;11795;47.054;15.408;2023-04-09T01:18:04;97930;;;4.2;86.6
23253;BME280;11795;47.054;15.408;2023-04-09T01:20:03;97930;;;4.3;86.0
23253;BME280;11795;47.054;15.408;2023-04-09T01:22:01;97930;;;4.2;86.4
23253;BME280;11795;47.054;15.408;2023-04-09T01:24:17;97930;;;4.4;86.1
23253;BME280;11795;47.054;15.408;2023-04-09T01:26:06;97930;;;4.3;86.2
23253;BME280;11795;47.054;15.408;2023-04-09T01:28:13;97930;;;4.2;86.6
23253;BME280;11795;47.054;15.408;2023-04-09T01:30:03;97930;;;4.3;86.0
23253;BME280;11795;47.054;15.408;2023-04-09T01:32:01;97930;;;4.2;86.4
23253;BME280;11795;47.054;15.408;2023-04-09T01:34:01;97930;;;4.4;86.2
23253;BME280;11795;47.054;15.408;2023-04-09T01:36:01;97930;;;4.3;86.1
23253;BME280;11795;47.054;15.408;2023-04-09T01:38:01;97930;;;4.2;86.4
23253;BME280;11795;47.054;15.408;2023-04-09T01:40:00;97920;;;4.4;85.9
23253;BME280;11795;47.054;15.408;2023-04-09T01:42:03;97920;;;4.3;86.2
23253;BME280;11795;47.054;15.408;2023-04-09T01:44:02;97910;;;4.5;85.9
23253;BME280;11795;47.054;15.408;2023-04-09T01:46:01;97910;;;4.3;85.9
23253;BME280;11795;47.054;15.408;2023-04-09T01:48:01;97920;;;4.2;86.3
23253;BME280;11795;47.054;15.408;2023-04-09T01:50:01;97910;;;4.4;85.8
23253;BME280;11795;47.054;15.408;2023-04-09T01:52:00;97910;;;4.3;86.2
23253;BME280;11795;47.054;15.408;2023-04-09T01:54:00;97910;;;4.5;86.0
23253;BME280;11795;47.054;15.408;2023-04-09T01:56:00;97920;;;4.3;85.9
23253;BME280;11795;47.054;15.408;2023-04-09T01:58:00;97910;;;4.3;86.3
23253;BME280;11795;47.054;15.408;2023-04-09T02:00:00;97910;;;4.4;85.9
23253;BME280;11795;47.054;15.408;2023-04-09T02:02:05;97900;;;4.3;86.2
23253;BME280;11795;47.054;15.408;2023-04-09T02:04:02;97910;;;4.5;86.0
23253;BME280;11795;47.054;15.408;2023-04-09T02:06:08;97910;;;4.4;85.9
23253;BME280;11795;47.054;15.408;2023-04-09T02:08:01;97910;;;4.3;86.1
23253;BME280;11795;47.054;15.408;2023-04-09T02:10:01;97910;;;4.4;85.9
23253;BME280;11795;47.054;15.408;2023-04-09T02:12:03;97910;;;4.3;86.4
23253;BME280;11795;47.054;15.408;2023-04-09T02:14:01;97910;;;4.5;86.4
23253;BME280;11795;47.054;15.408;2023-04-09T02:16:00;97910;;;4.3;86.4
23253;BME280;11795;47.054;15.408;2023-04-09T02:18:00;97910;;;4.2;86.8
23253;BME280;11795;47.054;15.408;2023-04-09T02:20:00;97910;;;4.4;86.3
23253;BME280;11795;47.054;15.408;2023-04-09T02:22:03;97920;;;4.2;86.7
23253;BME280;11795;47.054;15.408;2023-04-09T02:24:00;97920;;;4.5;86.5
23253;BME280;11795;47.054;15.408;2023-04-09T02:26:00;97920;;;4.3;86.5
23253;BME280;11795;47.054;15.408;2023-04-09T02:28:00;97910;;;4.3;86.9
23253;BME280;11795;47.054;15.408;2023-04-09T02:30:00;97920;;;4.4;86.4
23253;BME280;11795;47.054;15.408;2023-04-09T02:32:00;97910;;;4.3;86.8
23253;BME280;11795;47.054;15.408;2023-04-09T02:34:00;97900;;;4.6;86.6
23253;BME280;11795;47.054;15.408;2023-04-09T02:36:00;97900;;;4.4;86.6
23253;BME280;11795;47.054;15.408;2023-04-09T02:38:01;97900;;;4.4;86.9
23253;BME280;11795;47.054;15.408;2023-04-09T02:40:00;97910;;;4.5;86.4
23253;BME280;11795;47.054;15.408;2023-04-09T02:42:01;97900;;;4.3;87.0
23253;BME280;11795;47.054;15.408;2023-04-09T02:44:00;97900;;;4.6;86.8
23253;BME280;11795;47.054;15.408;2023-04-09T02:46:00;97900;;;4.4;86.6
23253;BME280;11795;47.054;15.408;2023-04-09T02:48:01;97900;;;4.4;86.8
23253;BME280;11795;47.054;15.408;2023-04-09T02:50:00;97900;;;4.5;86.4
23253;BME280;11795;47.054;15.408;2023-04-09T02:52:00;97900;;;4.2;87.7
23253;BME280;11795;47.054;15.408;2023-04-09T02:54:00;97900;;;4.4;87.5
23253;BME280;11795;47.054;15.408;2023-04-09T02:56:00;97900;;;4.3;87.5
23253;BME280;11795;47.054;15.408;2023-04-09T02:58:00;97900;;;4.2;88.2
23253;BME280;11795;47.054;15.408;2023-04-09T03:00:00;97890;;;4.3;87.8
23253;BME280;11795;47.054;15.408;2023-04-09T03:02:00;97900;;;4.2;88.3
23253;BME280;11795;47.054;15.408;2023-04-09T03:04:00;97900;;;4.3;88.2
23253;BME280;11795;47.054;15.408;2023-04-09T03:06:00;97900;;;4.2;88.2
23253;BME280;11795;47.054;15.408;2023-04-09T03:08:00;97890;;;4.2;88.6
23253;BME280;11795;47.054;15.408;2023-04-09T03:10:00;97900;;;4.3;88.0
23253;BME280;11795;47.054;15.408;2023-04-09T03:12:01;97890;;;4.2;88.1
23253;BME280;11795;47.054;15.408;2023-04-09T03:14:00;97890;;;4.4;88.0
23253;BME280;11795;47.054;15.408;2023-04-09T03:16:00;97880;;;4.2;88.0
23253;BME280;11795;47.054;15.408;2023-04-09T03:18:00;97880;;;4.1;88.5
23253;BME280;11795;47.054;15.408;2023-04-09T03:20:00;97890;;;4.3;88.1
23253;BME280;11795;47.054;15.408;2023-04-09T03:22:00;97890;;;4.1;88.5
23253;BME280;11795;47.054;15.408;2023-04-09T03:24:01;97890;;;4.3;88.5
23253;BME280;11795;47.054;15.408;2023-04-09T03:26:01;97890;;;4.2;88.3
23253;BME280;11795;47.054;15.408;2023-04-09T03:28:00;97890;;;4.2;88.6
23253;BME280;11795;47.054;15.408;2023-04-09T03:30:00;97890;;;4.3;88.0
23253;BME280;11795;47.054;15.408;2023-04-09T03:32:00;97880;;;4.2;88.3
23253;BME280;11795;47.054;15.408;2023-04-09T03:34:00;97880;;;4.4;88.3
23253;BME280;11795;47.054;15.408;2023-04-09T03:36:00;97880;;;4.3;88.0
23253;BME280;11795;47.054;15.408;2023-04-09T03:38:00;97880;;;4.2;88.4
23253;BME280;11795;47.054;15.408;2023-04-09T03:40:00;97880;;;4.3;87.8
23253;BME280;11795;47.054;15.408;2023-04-09T03:42:00;97880;;;4.2;88.2
23253;BME280;11795;47.054;15.408;2023-04-09T03:44:00;97880;;;4.4;88.3
23253;BME280;11795;47.054;15.408;2023-04-09T03:46:00;97880;;;4.3;88.0
23253;BME280;11795;47.054;15.408;2023-04-09T03:48:00;97880;;;4.2;88.3
23253;BME280;11795;47.054;15.408;2023-04-09T03:50:00;97880;;;4.3;87.8
23253;BME280;11795;47.054;15.408;2023-04-09T03:52:01;97880;;;4.2;88.2
23253;BME280;11795;47.054;15.408;2023-04-09T03:54:00;97890;;;4.4;88.2
23253;BME280;11795;47.054;15.408;2023-04-09T03:56:01;97880;;;4.3;88.0
23253;BME280;11795;47.054;15.408;2023-04-09T03:58:00;97890;;;4.2;88.4
23253;BME280;11795;47.054;15.408;2023-04-09T04:00:00;97880;;;4.4;87.9
23253;BME280;11795;47.054;15.408;2023-04-09T04:02:01;97880;;;4.2;88.2
23253;BME280;11795;47.054;15.408;2023-04-09T04:04:00;97890;;;4.4;88.2
23253;BME280;11795;47.054;15.408;2023-04-09T04:06:01;97890;;;4.3;88.0
23253;BME280;11795;47.054;15.408;2023-04-09T04:08:00;97890;;;4.2;88.4
23253;BME280;11795;47.054;15.408;2023-04-09T04:10:02;97890;;;4.3;87.9
23253;BME280;11795;47.054;15.408;2023-04-09T04:12:01;97890;;;4.2;88.3
23253;BME280;11795;47.054;15.408;2023-04-09T04:14:00;97890;;;4.3;88.5
23253;BME280;11795;47.054;15.408;2023-04-09T04:16:00;97890;;;4.2;88.4
23253;BME280;11795;47.054;15.408;2023-04-09T04:18:00;97900;;;4.2;88.7
23253;BME280;11795;47.054;15.408;2023-04-09T04:20:00;97900;;;4.3;88.3
23253;BME280;11795;47.054;15.408;2023-04-09T04:22:00;97890;;;4.2;88.8
23253;BME280;11795;47.054;15.408;2023-04-09T04:24:00;97900;;;4.3;88.9
23253;BME280;11795;47.054;15.408;2023-04-09T04:26:00;97900;;;4.3;88.7
23253;BME280;11795;47.054;15.408;2023-04-09T04:28:00;97900;;;4.2;89.0
23253;BME280;11795;47.054;15.408;2023-04-09T04:30:01;97900;;;4.3;88.5
23253;BME280;11795;47.054;15.408;2023-04-09T04:32:00;97900;;;4.2;88.8
23253;BME280;11795;47.054;15.408;2023-04-09T04:34:00;97910;;;4.4;88.9
23253;BME280;11795;47.054;15.408;2023-04-09T04:36:05;97900;;;4.3;88.6
23253;BME280;11795;47.054;15.408;2023-04-09T04:38:00;97910;;;4.2;89.1
23253;BME280;11795;47.054;15.408;2023-04-09T04:40:01;97910;;;4.4;88.5
23253;BME280;11795;47.054;15.408;2023-04-09T04:42:01;97910;;;4.2;89.2
23253;BME280;11795;47.054;15.408;2023-04-09T04:44:00;97910;;;4.3;89.5
23253;BME280;11795;47.054;15.408;2023-04-09T04:46:00;97910;;;4.2;89.4
23253;BME280;11795;47.054;15.408;2023-04-09T04:48:00;97900;;;4.2;90.2
23253;BME280;11795;47.054;15.408;2023-04-09T04:50:00;97900;;;4.3;89.6
23253;BME280;11795;47.054;15.408;2023-04-09T04:52:00;97910;;;4.2;89.9
23253;BME280;11795;47.054;15.408;2023-04-09T04:54:00;97900;;;4.3;90.2
23253;BME280;11795;47.054;15.408;2023-04-09T04:56:00;97910;;;4.2;90.3
23253;BME280;11795;47.054;15.408;2023-04-09T04:58:01;97910;;;4.2;90.7
23253;BME280;11795;47.054;15.408;2023-04-09T05:00:00;97910;;;4.3;90.5
23253;BME280;11795;47.054;15.408;2023-04-09T05:02:01;97910;;;4.2;90.7
23253;BME280;11795;47.054;15.408;2023-04-09T05:04:02;97910;;;4.4;90.6
23253;BME280;11795;47.054;15.408;2023-04-09T05:06:00;97910;;;4.4;90.2
23253;BME280;11795;47.054;15.408;2023-04-09T05:08:00;97910;;;4.3;90.5
23253;BME280;11795;47.054;15.408;2023-04-09T05:10:00;97910;;;4.5;90.2
23253;BME280;11795;47.054;15.408;2023-04-09T05:12:01;97910;;;4.3;90.2
23253;BME280;11795;47.054;15.408;2023-04-09T05:14:00;97910;;;4.5;90.5
23253;BME280;11795;47.054;15.408;2023-04-09T05:16:00;97920;;;4.5;90.2
23253;BME280;11795;47.054;15.408;2023-04-09T05:18:00;97920;;;4.4;90.6
23253;BME280;11795;47.054;15.408;2023-04-09T05:20:00;97910;;;4.6;90.1
23253;BME280;11795;47.054;15.408;2023-04-09T05:22:00;97920;;;4.5;90.3
23253;BME280;11795;47.054;15.408;2023-04-09T05:24:01;97920;;;4.6;90.4
23253;BME280;11795;47.054;15.408;2023-04-09T05:26:00;97920;;;4.6;90.1
23253;BME280;11795;47.054;15.408;2023-04-09T05:28:00;97920;;;4.6;90.4
23253;BME280;11795;47.054;15.408;2023-04-09T05:30:00;97920;;;4.8;89.3
23253;BME280;11795;47.054;15.408;2023-04-09T05:32:00;97920;;;4.7;89.7
23253;BME280;11795;47.054;15.408;2023-04-09T05:34:00;97920;;;4.8;89.8
23253;BME280;11795;47.054;15.408;2023-04-09T05:36:00;97930;;;4.7;89.2
23253;BME280;11795;47.054;15.408;2023-04-09T05:38:00;97930;;;4.6;89.7
23253;BME280;11795;47.054;15.408;2023-04-09T05:40:00;97930;;;4.7;89.2
23253;BME280;11795;47.054;15.408;2023-04-09T05:42:00;97930;;;4.6;89.6
23253;BME280;11795;47.054;15.408;2023-04-09T05:44:00;97930;;;4.8;89.6
23253;BME280;11795;47.054;15.408;2023-04-09T05:46:00;97930;;;4.7;89.2
23253;BME280;11795;47.054;15.408;2023-04-09T05:48:00;97930;;;4.7;89.6
23253;BME280;11795;47.054;15.408;2023-04-09T05:50:00;97930;;;4.8;88.6
23253;BME280;11795;47.054;15.408;2023-04-09T05:52:00;97940;;;4.8;88.9
23253;BME280;11795;47.054;15.408;2023-04-09T05:54:01;97930;;;4.8;88.9
23253;BME280;11795;47.054;15.408;2023-04-09T05:56:00;97940;;;4.7;88.0
23253;BME280;11795;47.054;15.408;2023-04-09T05:58:00;97940;;;4.7;88.6
23253;BME280;11795;47.054;15.408;2023-04-09T06:00:00;97940;;;4.9;87.9
23253;BME280;11795;47.054;15.408;2023-04-09T06:02:01;97940;;;4.8;88.4
23253;BME280;11795;47.054;15.408;2023-04-09T06:04:00;97940;;;4.9;88.6
23253;BME280;11795;47.054;15.408;2023-04-09T06:06:00;97940;;;4.8;88.1
23253;BME280;11795;47.054;15.408;2023-04-09T06:08:00;97950;;;4.8;88.7
23253;BME280;11795;47.054;15.408;2023-04-09T06:10:01;97950;;;5.0;88.1
23253;BME280;11795;47.054;15.408;2023-04-09T06:12:01;97950;;;4.9;88.2
23253;BME280;11795;47.054;15.408;2023-04-09T06:14:00;97940;;;5.0;88.3
23253;BME280;11795;47.054;15.408;2023-04-09T06:16:02;97940;;;5.0;87.4
23253;BME280;11795;47.054;15.408;2023-04-09T06:18:00;97940;;;5.0;87.7
23253;BME280;11795;47.054;15.408;2023-04-09T06:20:00;97950;;;5.2;87.1
23253;BME280;11795;47.054;15.408;2023-04-09T06:22:00;97950;;;5.1;87.5
23253;BME280;11795;47.054;15.408;2023-04-09T06:24:01;97950;;;5.2;87.6
23253;BME280;11795;47.054;15.408;2023-04-09T06:26:01;97950;;;5.2;86.8
23253;BME280;11795;47.054;15.408;2023-04-09T06:28:00;97950;;;5.1;86.2
23253;BME280;11795;47.054;15.408;2023-04-09T06:30:00;97950;;;5.2;85.7
23253;BME280;11795;47.054;15.408;2023-04-09T06:32:00;97950;;;5.1;85.9
23253;BME280;11795;47.054;15.408;2023-04-09T06:34:00;97950;;;5.2;86.2
23253;BME280;11795;47.054;15.408;2023-04-09T06:36:00;97950;;;5.2;85.7
23253;BME280;11795;47.054;15.408;2023-04-09T06:38:00;97960;;;5.2;85.9
23253;BME280;11795;47.054;15.408;2023-04-09T06:40:00;97950;;;5.4;84.8
23253;BME280;11795;47.054;15.408;2023-04-09T06:42:00;97950;;;5.2;84.9
23253;BME280;11795;47.054;15.408;2023-04-09T06:44:00;97960;;;5.3;85.0
23253;BME280;11795;47.054;15.408;2023-04-09T06:46:00;97960;;;5.3;83.5
23253;BME280;11795;47.054;15.408;2023-04-09T06:48:00;97950;;;5.2;83.4
23253;BME280;11795;47.054;15.408;2023-04-09T06:50:00;97960;;;5.3;83.0
23253;BME280;11795;47.054;15.408;2023-04-09T06:52:01;97960;;;5.2;83.5
23253;BME280;11795;47.054;15.408;2023-04-09T06:54:00;97960;;;5.3;83.7
23253;BME280;11795;47.054;15.408;2023-04-09T06:56:00;97960;;;5.3;83.4
23253;BME280;11795;47.054;15.408;2023-04-09T06:58:01;97970;;;5.3;83.1
23253;BME280;11795;47.054;15.408;2023-04-09T07:00:00;97970;;;5.4;82.5
23253;BME280;11795;47.054;15.408;2023-04-09T07:02:00;97970;;;5.2;83.1
23253;BME280;11795;47.054;15.408;2023-04-09T07:04:00;97970;;;5.3;83.4
23253;BME280;11795;47.054;15.408;2023-04-09T07:06:00;97970;;;5.4;82.7
23253;BME280;11795;47.054;15.408;2023-04-09T07:08:00;97980;;;5.3;83.2
23253;BME280;11795;47.054;15.408;2023-04-09T07:10:01;97980;;;5.5;82.8
23253;BME280;11795;47.054;15.408;2023-04-09T07:12:01;97980;;;5.4;83.2
23253;BME280;11795;47.054;15.408;2023-04-09T07:14:00;97980;;;5.4;83.5
23253;BME280;11795;47.054;15.408;2023-04-09T07:16:00;97980;;;5.5;83.1
23253;BME280;11795;47.054;15.408;2023-04-09T07:18:00;97990;;;5.4;83.5
23253;BME280;11795;47.054;15.408;2023-04-09T07:20:01;97990;;;5.6;82.8
23253;BME280;11795;47.054;15.408;2023-04-09T07:22:00;97990;;;5.5;83.3
23253;BME280;11795;47.054;15.408;2023-04-09T07:24:01;97990;;;5.5;83.4
23253;BME280;11795;47.054;15.408;2023-04-09T07:26:00;97990;;;5.6;82.9
23253;BME280;11795;47.054;15.408;2023-04-09T07:28:00;97990;;;5.5;83.4
23253;BME280;11795;47.054;15.408;2023-04-09T07:30:00;97990;;;5.7;82.8
23253;BME280;11795;47.054;15.408;2023-04-09T07:32:01;97990;;;5.6;83.1
23253;BME280;11795;47.054;15.408;2023-04-09T07:34:00;97990;;;5.7;83.0
23253;BME280;11795;47.054;15.408;2023-04-09T07:36:00;98000;;;5.8;82.1
23253;BME280;11795;47.054;15.408;2023-04-09T07:38:00;98000;;;5.7;82.1
23253;BME280;11795;47.054;15.408;2023-04-09T07:40:01;98000;;;5.8;81.5
23253;BME280;11795;47.054;15.408;2023-04-09T07:42:01;98000;;;5.8;81.7
23253;BME280;11795;47.054;15.408;2023-04-09T07:44:02;98000;;;5.8;81.6
23253;BME280;11795;47.054;15.408;2023-04-09T07:46:00;98000;;;5.9;81.2
23253;BME280;11795;47.054;15.408;2023-04-09T07:48:00;98000;;;5.9;81.7
23253;BME280;11795;47.054;15.408;2023-04-09T07:50:00;98000;;;6.1;81.2
23253;BME280;11795;47.054;15.408;2023-04-09T07:52:00;98010;;;6.1;82.0
23253;BME280;11795;47.054;15.408;2023-04-09T07:54:00;98000;;;6.2;82.1
23253;BME280;11795;47.054;15.408;2023-04-09T07:56:00;98010;;;6.3;81.7
23253;BME280;11795;47.054;15.408;2023-04-09T07:58:00;98010;;;6.3;81.9
23253;BME280;11795;47.054;15.408;2023-04-09T08:00:01;98010;;;6.6;81.2
23253;BME280;11795;47.054;15.408;2023-04-09T08:02:00;98010;;;6.5;81.1
23253;BME280;11795;47.054;15.408;2023-04-09T08:04:01;98000;;;6.5;80.9
23253;BME280;11795;47.054;15.408;2023-04-09T08:06:01;98010;;;6.6;79.3
23253;BME280;11795;47.054;15.408;2023-04-09T08:08:00;98010;;;6.5;78.9
23253;BME280;11795;47.054;15.408;2023-04-09T08:10:00;98010;;;6.6;78.8
23253;BME280;11795;47.054;15.408;2023-04-09T08:12:00;98010;;;6.5;79.0
23253;BME280;11795;47.054;15.408;2023-04-09T08:14:02;98010;;;6.6;79.4
23253;BME280;11795;47.054;15.408;2023-04-09T08:16:01;98020;;;6.7;79.0
23253;BME280;11795;47.054;15.408;2023-04-09T08:18:02;98020;;;6.6;78.6
23253;BME280;11795;47.054;15.408;2023-04-09T08:20:00;98010;;;6.8;77.2
23253;BME280;11795;47.054;15.408;2023-04-09T08:22:00;98020;;;6.6;77.4
23253;BME280;11795;47.054;15.408;2023-04-09T08:24:04;98020;;;6.6;77.7
23253;BME280;11795;47.054;15.408;2023-04-09T08:26:00;98020;;;6.6;76.6
23253;BME280;11795;47.054;15.408;2023-04-09T08:28:00;98020;;;6.6;76.6
23253;BME280;11795;47.054;15.408;2023-04-09T08:30:02;98020;;;6.6;76.3
23253;BME280;11795;47.054;15.408;2023-04-09T08:32:00;98020;;;6.5;77.1
23253;BME280;11795;47.054;15.408;2023-04-09T08:34:00;98020;;;6.5;78.0
23253;BME280;11795;47.054;15.408;2023-04-09T08:36:00;98020;;;6.7;78.2
23253;BME280;11795;47.054;15.408;2023-04-09T08:38:00;98030;;;6.6;78.6
23253;BME280;11795;47.054;15.408;2023-04-09T08:40:00;98030;;;6.9;78.0
23253;BME280;11795;47.054;15.408;2023-04-09T08:42:01;98030;;;6.8;79.0
23253;BME280;11795;47.054;15.408;2023-04-09T08:44:01;98030;;;6.8;79.2
23253;BME280;11795;47.054;15.408;2023-04-09T08:46:02;98030;;;6.9;77.1
23253;BME280;11795;47.054;15.408;2023-04-09T08:48:02;98030;;;6.9;77.3
23253;BME280;11795;47.054;15.408;2023-04-09T08:50:00;98040;;;7.1;76.9
23253;BME280;11795;47.054;15.408;2023-04-09T08:52:00;98040;;;6.9;77.3
23253;BME280;11795;47.054;15.408;2023-04-09T08:54:01;98040;;;6.8;76.1
23253;BME280;11795;47.054;15.408;2023-04-09T08:56:00;98040;;;6.8;76.8
23253;BME280;11795;47.054;15.408;2023-04-09T08:58:03;98040;;;6.7;76.8
23253;BME280;11795;47.054;15.408;2023-04-09T09:00:00;98040;;;6.8;76.7
23253;BME280;11795;47.054;15.408;2023-04-09T09:02:08;98050;;;6.7;77.4
23253;BME280;11795;47.054;15.408;2023-04-09T09:04:02;98040;;;6.7;77.3
23253;BME280;11795;47.054;15.408;2023-04-09T09:06:00;98050;;;6.9;77.2
23253;BME280;11795;47.054;15.408;2023-04-09T09:08:00;98050;;;6.8;76.0
23253;BME280;11795;47.054;15.408;2023-04-09T09:10:02;98050;;;6.9;76.3
23253;BME280;11795;47.054;15.408;2023-04-09T09:12:02;98050;;;6.8;76.8
23253;BME280;11795;47.054;15.408;2023-04-09T09:14:02;98050;;;6.9;76.6
23253;BME280;11795;47.054;15.408;2023-04-09T09:16:11;98050;;;6.8;76.8
23253;BME280;11795;47.054;15.408;2023-04-09T09:18:00;98050;;;6.7;77.9
23253;BME280;11795;47.054;15.408;2023-04-09T09:20:17;98050;;;6.6;76.4
23253;BME280;11795;47.054;15.408;2023-04-09T09:22:02;98050;;;6.5;78.1
23253;BME280;11795;47.054;15.408;2023-04-09T09:24:01;98050;;;6.6;77.9
23253;BME280;11795;47.054;15.408;2023-04-09T09:26:10;98060;;;6.8;77.3
23253;BME280;11795;47.054;15.408;2023-04-09T09:28:06;98060;;;6.7;77.5
23253;BME280;11795;47.054;15.408;2023-04-09T09:30:01;98060;;;6.6;77.5
23253;BME280;11795;47.054;15.408;2023-04-09T09:32:00;98060;;;6.6;78.4
23253;BME280;11795;47.054;15.408;2023-04-09T09:34:07;98060;;;6.4;79.4
23253;BME280;11795;47.054;15.408;2023-04-09T09:36:03;98060;;;6.3;79.1
23253;BME280;11795;47.054;15.408;2023-04-09T09:38:02;98060;;;6.4;79.5
23253;BME280;11795;47.054;15.408;2023-04-09T09:40:00;98060;;;6.5;79.4
23253;BME280;11795;47.054;15.408;2023-04-09T09:42:06;98060;;;6.3;80.4
23253;BME280;11795;47.054;15.408;2023-04-09T09:44:01;98060;;;6.3;81.2
23253;BME280;11795;47.054;15.408;2023-04-09T09:46:00;98060;;;6.5;80.7
23253;BME280;11795;47.054;15.408;2023-04-09T09:48:01;98060;;;6.4;81.3
23253;BME280;11795;47.054;15.408;2023-04-09T09:50:01;98060;;;6.5;80.9
23253;BME280;11795;47.054;15.408;2023-04-09T09:52:04;98070;;;6.2;82.0
23253;BME280;11795;47.054;15.408;2023-04-09T09:54:01;98070;;;6.3;82.2
23253;BME280;11795;47.054;15.408;2023-04-09T09:56:01;98070;;;5.9;82.9
23253;BME280;11795;47.054;15.408;2023-04-09T09:58:02;98070;;;6.1;82.6
23253;BME280;11795;47.054;15.408;2023-04-09T10:00:02;98070;;;6.4;82.1
23253;BME280;11795;47.054;15.408;2023-04-09T10:02:03;98060;;;6.6;82.9
23253;BME280;11795;47.054;15.408;2023-04-09T10:04:01;98070;;;6.8;82.5
23253;BME280;11795;47.054;15.408;2023-04-09T10:06:01;98060;;;7.1;79.9
23253;BME280;11795;47.054;15.408;2023-04-09T10:08:01;98060;;;7.3;79.3
23253;BME280;11795;47.054;15.408;2023-04-09T10:10:01;98060;;;7.5;76.9
23253;BME280;11795;47.054;15.408;2023-04-09T10:12:03;98060;;;7.5;78.0
23253;BME280;11795;47.054;15.408;2023-04-09T10:14:01;98060;;;7.7;78.0
23253;BME280;11795;47.054;15.408;2023-04-09T10:16:01;98050;;;7.9;73.9
23253;BME280;11795;47.054;15.408;2023-04-09T10:18:01;98050;;;7.9;74.5
23253;BME280;11795;47.054;15.408;2023-04-09T10:20:06;98050;;;8.3;74.2
23253;BME280;11795;47.054;15.408;2023-04-09T10:22:04;98050;;;8.4;74.4
23253;BME280;11795;47.054;15.408;2023-04-09T10:24:05;98050;;;8.4;71.3
23253;BME280;11795;47.054;15.408;2023-04-09T10:26:00;98040;;;8.4;71.4
23253;BME280;11795;47.054;15.408;2023-04-09T10:28:01;98040;;;8.4;72.8
23253;BME280;11795;47.054;15.408;2023-04-09T10:30:01;98040;;;8.4;70.8
23253;BME280;11795;47.054;15.408;2023-04-09T10:32:04;98040;;;8.4;72.1
23253;BME280;11795;47.054;15.408;2023-04-09T10:34:02;98040;;;8.4;71.8
23253;BME280;11795;47.054;15.408;2023-04-09T10:36:03;98040;;;8.6;71.3
23253;BME280;11795;47.054;15.408;2023-04-09T10:38:00;98040;;;8.5;71.0
23253;BME280;11795;47.054;15.408;2023-04-09T10:40:02;98030;;;8.8;71.3
23253;BME280;11795;47.054;15.408;2023-04-09T10:42:07;98040;;;8.7;70.7
23253;BME280;11795;47.054;15.408;2023-04-09T10:44:05;98030;;;8.7;69.8
23253;BME280;11795;47.054;15.408;2023-04-09T10:46:03;98020;;;8.9;69.2
23253;BME280;11795;47.054;15.408;2023-04-09T10:48:01;98020;;;8.9;68.0
23253;BME280;11795;47.054;15.408;2023-04-09T10:50:14;98020;;;9.4;69.4
23253;BME280;11795;47.054;15.408;2023-04-09T10:52:02;98020;;;9.6;67.3
23253;BME280;11795;47.054;15.408;2023-04-09T10:54:00;98020;;;9.7;67.9
23253;BME280;11795;47.054;15.408;2023-04-09T10:56:00;98020;;;10.0;66.7
23253;BME280;11795;47.054;15.408;2023-04-09T10:58:01;98020;;;10.1;65.5
23253;BME280;11795;47.054;15.408;2023-04-09T11:00:00;98020;;;10.4;63.0
23253;BME280;11795;47.054;15.408;2023-04-09T11:02:00;98010;;;10.5;61.7
23253;BME280;11795;47.054;15.408;2023-04-09T11:04:07;98010;;;10.5;62.2
23253;BME280;11795;47.054;15.408;2023-04-09T11:06:01;98010;;;10.7;62.9
23253;BME280;11795;47.054;15.408;2023-04-09T11:08:03;98010;;;10.6;63.2
23253;BME280;11795;47.054;15.408;2023-04-09T11:10:00;98010;;;10.7;64.1
23253;BME280;11795;47.054;15.408;2023-04-09T11:12:01;98010;;;10.5;63.5
23253;BME280;11795;47.054;15.408;2023-04-09T11:14:00;98010;;;10.4;62.1
23253;BME280;11795;47.054;15.408;2023-04-09T11:16:03;98010;;;9.9;61.8
23253;BME280;11795;47.054;15.408;2023-04-09T11:18:01;98010;;;9.6;63.6
23253;BME280;11795;47.054;15.408;2023-04-09T11:20:01;98010;;;9.6;62.9